• Join FlightAware (Why Join?)
  • Login
  • US Flag 
06:12AM EDT


 

Airport Tracker/Info


-or-


 

Live Flight TrackerFlight Track Log ✈ ASQ5740 ✈ 11-Nov-2013 ✈ KIAD - KGSP

Flight Track Log - Related Links

Times and Time Zones

All times are in EST time to prevent confusion due to time zone crossing. See the ASQ5740 flight status page for this flight to view local times or setup timezone preferences in your user account.

Time Position Orientation Groundspeed Altitude Reporting Facility
EST Latitude Longitude Course Direction KTS MPH feet Rate Location/Type
03:49PM 38.9333 -77.5167 233° Southwest 184 212 2,100  Level Potomac TRACON
03:50PM 38.8833 -77.5333 195° South 234 269 4,000 2,280 Climbing Potomac TRACON
03:51PM 38.8000 -77.5333 180° South 264 304 6,800 2,760 Climbing Potomac TRACON
03:52PM 38.6645 -77.8172 226° Southwest  Level Estimated
03:52PM 38.7333 -77.5500 191° South 279 321 9,600  Level Potomac TRACON
03:53PM 38.5936 -77.9061 238° Southwest  Level Estimated
03:54PM 38.5226 -77.9948 233° Southwest  Level Estimated
03:54PM 38.5933 -77.6636 212° Southwest 306 352 12,100  Level Washington Center
03:55PM 38.5108 -77.7328 213° Southwest 341 392 13,800 1,680 Climbing Washington Center
03:56PM 38.4281 -77.8047 214° Southwest 361 415 15,500 1,680 Climbing Washington Center
03:57PM 38.3556 -77.8900 223° Southwest 361 415 17,300 1,500 Climbing Washington Center
03:58PM 38.2850 -77.9803 225° Southwest 361 415 18,600 1,140 Climbing Washington Center
03:59PM 38.2122 -78.0706 224° Southwest 361 415 19,600 960 Climbing Washington Center
04:00PM 38.1375 -78.1631 224° Southwest 367 422 20,600 960 Climbing Washington Center
04:01PM 38.0622 -78.2581 225° Southwest 372 428 21,600 960 Climbing Washington Center
04:02PM 37.9914 -78.3506 226° Southwest 372 428 22,600 960 Climbing Washington Center
04:03PM 37.9142 -78.4425 223° Southwest 372 428 23,600 900 Climbing Washington Center
04:04PM 37.8453 -78.5267 224° Southwest 372 428 24,500 600 Climbing Washington Center
04:05PM 37.7681 -78.6233 225° Southwest 384 442 24,900 420 Climbing Washington Center
04:06PM 37.6861 -78.7172 222° Southwest 390 449 25,400 480 Climbing Washington Center
04:07PM 37.6064 -78.8136 224° Southwest 395 455 25,900 540 Climbing Washington Center
04:08PM 37.5158 -78.9222 224° Southwest 401 461 26,500 540 Climbing Washington Center
04:09PM 37.4339 -79.0233 224° Southwest 401 461 27,000 480 Climbing Washington Center
04:10PM 37.3517 -79.1217 224° Southwest 406 467 27,500 480 Climbing Washington Center
04:11PM 37.2694 -79.2169 223° Southwest 406 467 28,000 240 Climbing Washington Center
04:12PM 37.1933 -79.3256 229° Southwest 406 467 28,000  Level Washington Center
04:13PM 37.1189 -79.4364 230° Southwest 416 479 28,000  Level Washington Center
04:14PM 37.0486 -79.5397 230° Southwest 430 495 28,000  Level Washington Center
04:15PM 36.9719 -79.6500 229° Southwest 430 495 28,000  Level Washington Center
04:16PM 36.8950 -79.7628 230° Southwest 430 495 28,000  Level Washington Center
04:18PM 36.7183 -80.0222 230° Southwest 427 491 28,000  Level Atlanta Center
04:19PM 36.6406 -80.1347 229° Southwest 427 491 28,000  Level Atlanta Center
04:20PM 36.5628 -80.2469 229° Southwest 427 491 28,000  Level Atlanta Center
04:21PM 36.4397 -80.3097 202° Southwest 426 490 28,000 -540 Level Atlanta Center
04:22PM 36.3178 -80.3539 196° South 441 507 27,000 -1,020 Descending Atlanta Center
04:23PM 36.1983 -80.3981 197° South 451 519 26,000 -1,020 Descending Atlanta Center
04:24PM 36.0764 -80.4419 196° South 451 519 25,000 -960 Descending Atlanta Center
04:25PM 35.9689 -80.4750 194° South 457 526 24,100 -900 Descending Atlanta Center
04:26PM 35.8492 -80.5186 196° South 452 520 23,200 -1,020 Descending Atlanta Center
04:27PM 35.7383 -80.5772 203° Southwest 447 514 22,100 -1,080 Descending Atlanta Center
04:28PM 35.6747 -80.6950 236° Southwest 414 476 21,100 -1,140 Descending Atlanta Center
04:28PM 35.6572 -80.7442 246° West 404 465 20,700 -1,500 Descending Atlanta Center
04:28PM 35.6475 -80.7625 237° Southwest 404 465 20,500 -1,980 Descending Atlanta Center
04:29PM 35.6094 -80.8253 233° Southwest 397 457 19,300 -2,100 Descending Atlanta Center
04:29PM 35.5858 -80.8775 241° Southwest 406 467 18,400 -1,800 Descending Atlanta Center
04:30PM 35.5519 -80.9375 235° Southwest 402 463 17,500 -1,800 Descending Atlanta Center
04:30PM 35.5303 -80.9892 243° Southwest 389 448 16,600 -2,040 Descending Atlanta Center
04:31PM 35.4942 -81.0517 235° Southwest 397 457 15,500 -2,280 Descending Atlanta Center
04:32PM 35.4706 -81.1086 243° Southwest 380 437 14,300 -2,100 Descending Atlanta Center
04:32PM 35.4403 -81.1531 230° Southwest 392 451 13,400 -1,200 Descending Atlanta Center
04:33PM 35.4122 -81.2103 239° Southwest 364 419 13,100 -420 Descending Atlanta Center
04:33PM 35.3861 -81.2519 232° Southwest 387 445 13,000  Descending Atlanta Center
04:34PM 35.3586 -81.3189 243° Southwest 369 425 13,100 -240 Climbing Atlanta Center
04:34PM 35.3344 -81.3606 235° Southwest 387 445 12,800 -1,140 Descending Atlanta Center
04:35PM 35.2983 -81.4303 238° Southwest 369 425 12,000 -1,200 Descending Atlanta Center
04:35PM 35.2783 -81.4667 236° Southwest 381 438 11,600 -1,080 Descending Atlanta Center
04:36PM 35.2239 -81.5700 237° Southwest 374 430 10,400 -900 Descending Atlanta Center
04:37PM 35.1678 -81.6783 238° Southwest 379 436 9,900 -300 Descending Atlanta Center
04:38PM 35.1092 -81.7792 235° Southwest 379 436 9,900 -600 Level Atlanta Center
04:39PM 35.0519 -81.8542 227° Southwest 344 396 8,700 -1,620 Descending Atlanta Center
04:40PM 34.9969 -81.9217 225° Southwest 308 354 6,700 -1,380 Descending Atlanta Center
04:41PM 34.9458 -81.9889 227° Southwest 292 336 6,000 -420 Descending Atlanta Center
04:42PM 34.8928 -82.0558 226° Southwest 280 322 5,900 -1,080 Descending Atlanta Center
04:43PM 34.8458 -82.1203 228° Southwest 268 308 3,900 -1,560 Descending Atlanta Center
04:44PM 34.8089 -82.1742 230° Southwest 251 289 2,800 -780 Descending Atlanta Center
04:45PM 34.7761 -82.2003 213° Southwest 200 230 2,400 -420 Descending Atlanta Center